sensor_id;sensor_type;location;lat;lon;timestamp;temperature;humidity
7934;DHT22;4012;48.896;9.192;2022-12-08T00:01:42;2.50;99.90
7934;DHT22;4012;48.896;9.192;2022-12-08T00:04:09;2.50;99.90
7934;DHT22;4012;48.896;9.192;2022-12-08T00:06:38;2.40;99.90
7934;DHT22;4012;48.896;9.192;2022-12-08T00:09:24;2.30;99.90
7934;DHT22;4012;48.896;9.192;2022-12-08T00:11:54;2.40;99.90
7934;DHT22;4012;48.896;9.192;2022-12-08T00:16:53;2.30;99.90
7934;DHT22;4012;48.896;9.192;2022-12-08T00:19:20;2.30;99.90
7934;DHT22;4012;48.896;9.192;2022-12-08T00:21:45;2.30;99.90
7934;DHT22;4012;48.896;9.192;2022-12-08T00:24:11;2.30;99.90
7934;DHT22;4012;48.896;9.192;2022-12-08T00:26:37;2.30;99.90
7934;DHT22;4012;48.896;9.192;2022-12-08T00:29:03;2.30;99.90
7934;DHT22;4012;48.896;9.192;2022-12-08T00:31:29;2.40;99.90
7934;DHT22;4012;48.896;9.192;2022-12-08T00:33:54;2.50;99.90
7934;DHT22;4012;48.896;9.192;2022-12-08T00:36:20;2.60;99.90
7934;DHT22;4012;48.896;9.192;2022-12-08T00:38:46;2.60;99.90
7934;DHT22;4012;48.896;9.192;2022-12-08T00:41:16;2.70;99.90
7934;DHT22;4012;48.896;9.192;2022-12-08T00:43:43;2.60;99.90
7934;DHT22;4012;48.896;9.192;2022-12-08T00:46:09;2.60;99.90
7934;DHT22;4012;48.896;9.192;2022-12-08T00:48:35;2.70;99.90
7934;DHT22;4012;48.896;9.192;2022-12-08T00:51:00;2.70;99.90
7934;DHT22;4012;48.896;9.192;2022-12-08T00:53:26;2.90;99.90
7934;DHT22;4012;48.896;9.192;2022-12-08T00:55:52;2.90;99.90
7934;DHT22;4012;48.896;9.192;2022-12-08T00:58:17;2.90;99.90
7934;DHT22;4012;48.896;9.192;2022-12-08T01:00:43;2.80;99.90
7934;DHT22;4012;48.896;9.192;2022-12-08T01:03:09;2.80;99.90
7934;DHT22;4012;48.896;9.192;2022-12-08T01:05:35;2.80;99.90
7934;DHT22;4012;48.896;9.192;2022-12-08T01:08:02;2.70;99.90
7934;DHT22;4012;48.896;9.192;2022-12-08T01:10:29;2.70;99.90
7934;DHT22;4012;48.896;9.192;2022-12-08T01:12:54;2.60;99.90
7934;DHT22;4012;48.896;9.192;2022-12-08T01:15:20;2.60;99.90
7934;DHT22;4012;48.896;9.192;2022-12-08T01:17:46;2.60;99.90
7934;DHT22;4012;48.896;9.192;2022-12-08T01:20:11;2.60;99.90
7934;DHT22;4012;48.896;9.192;2022-12-08T01:22:37;2.50;99.90
7934;DHT22;4012;48.896;9.192;2022-12-08T01:25:02;2.50;99.90
7934;DHT22;4012;48.896;9.192;2022-12-08T01:27:28;2.40;99.90
7934;DHT22;4012;48.896;9.192;2022-12-08T01:29:54;2.40;99.90
7934;DHT22;4012;48.896;9.192;2022-12-08T01:32:19;2.30;99.90
7934;DHT22;4012;48.896;9.192;2022-12-08T01:34:45;2.30;99.90
7934;DHT22;4012;48.896;9.192;2022-12-08T01:37:10;2.20;99.90
7934;DHT22;4012;48.896;9.192;2022-12-08T01:39:37;2.10;99.90
7934;DHT22;4012;48.896;9.192;2022-12-08T01:42:03;2.10;99.90
7934;DHT22;4012;48.896;9.192;2022-12-08T01:46:54;2.10;99.90
7934;DHT22;4012;48.896;9.192;2022-12-08T01:49:23;2.00;99.90
7934;DHT22;4012;48.896;9.192;2022-12-08T01:54:28;2.00;99.90
7934;DHT22;4012;48.896;9.192;2022-12-08T01:57:04;2.00;99.90
7934;DHT22;4012;48.896;9.192;2022-12-08T01:59:36;2.00;99.90
7934;DHT22;4012;48.896;9.192;2022-12-08T02:02:03;2.00;99.90
7934;DHT22;4012;48.896;9.192;2022-12-08T02:04:28;2.00;99.90
7934;DHT22;4012;48.896;9.192;2022-12-08T02:06:54;2.00;99.90
7934;DHT22;4012;48.896;9.192;2022-12-08T02:09:20;2.00;99.90
7934;DHT22;4012;48.896;9.192;2022-12-08T02:11:50;2.00;99.90
7934;DHT22;4012;48.896;9.192;2022-12-08T02:14:16;2.00;99.90
7934;DHT22;4012;48.896;9.192;2022-12-08T02:16:56;2.10;99.90
7934;DHT22;4012;48.896;9.192;2022-12-08T02:19:36;2.10;99.90
7934;DHT22;4012;48.896;9.192;2022-12-08T02:22:19;2.10;99.90
7934;DHT22;4012;48.896;9.192;2022-12-08T02:43:47;2.00;99.90
7934;DHT22;4012;48.896;9.192;2022-12-08T02:46:26;2.00;99.90
7934;DHT22;4012;48.896;9.192;2022-12-08T02:48:53;2.00;99.90
7934;DHT22;4012;48.896;9.192;2022-12-08T02:51:20;1.90;99.90
7934;DHT22;4012;48.896;9.192;2022-12-08T02:53:46;1.80;99.90
7934;DHT22;4012;48.896;9.192;2022-12-08T02:56:34;1.70;99.90
7934;DHT22;4012;48.896;9.192;2022-12-08T02:59:45;1.60;99.90
7934;DHT22;4012;48.896;9.192;2022-12-08T03:02:34;1.60;99.90
7934;DHT22;4012;48.896;9.192;2022-12-08T03:08:06;1.50;99.90
7934;DHT22;4012;48.896;9.192;2022-12-08T03:10:39;1.50;99.90
7934;DHT22;4012;48.896;9.192;2022-12-08T03:13:16;1.50;99.90
7934;DHT22;4012;48.896;9.192;2022-12-08T03:15:46;1.40;99.90
7934;DHT22;4012;48.896;9.192;2022-12-08T03:18:15;1.40;99.90
7934;DHT22;4012;48.896;9.192;2022-12-08T03:20:42;1.40;99.90
7934;DHT22;4012;48.896;9.192;2022-12-08T03:23:11;1.40;99.90
7934;DHT22;4012;48.896;9.192;2022-12-08T03:25:43;1.40;99.90
7934;DHT22;4012;48.896;9.192;2022-12-08T03:28:11;1.50;99.90
7934;DHT22;4012;48.896;9.192;2022-12-08T03:30:39;1.40;99.90
7934;DHT22;4012;48.896;9.192;2022-12-08T03:33:27;1.50;99.90
7934;DHT22;4012;48.896;9.192;2022-12-08T03:35:55;1.40;99.90
7934;DHT22;4012;48.896;9.192;2022-12-08T03:38:22;1.50;99.90
7934;DHT22;4012;48.896;9.192;2022-12-08T03:40:48;1.50;99.90
7934;DHT22;4012;48.896;9.192;2022-12-08T03:43:33;1.50;99.90
7934;DHT22;4012;48.896;9.192;2022-12-08T03:45:59;1.40;99.90
7934;DHT22;4012;48.896;9.192;2022-12-08T03:48:25;1.40;99.90
7934;DHT22;4012;48.896;9.192;2022-12-08T03:50:50;1.40;99.90
7934;DHT22;4012;48.896;9.192;2022-12-08T03:53:16;1.40;99.90
7934;DHT22;4012;48.896;9.192;2022-12-08T03:55:42;1.40;99.90
7934;DHT22;4012;48.896;9.192;2022-12-08T03:58:07;1.30;99.90
7934;DHT22;4012;48.896;9.192;2022-12-08T04:00:33;1.30;99.90
7934;DHT22;4012;48.896;9.192;2022-12-08T04:02:58;1.30;99.90
7934;DHT22;4012;48.896;9.192;2022-12-08T04:05:24;1.20;99.90
7934;DHT22;4012;48.896;9.192;2022-12-08T04:07:49;1.20;99.90
7934;DHT22;4012;48.896;9.192;2022-12-08T04:10:15;1.20;99.90
7934;DHT22;4012;48.896;9.192;2022-12-08T04:12:41;1.20;99.90
7934;DHT22;4012;48.896;9.192;2022-12-08T04:15:07;1.10;99.90
7934;DHT22;4012;48.896;9.192;2022-12-08T04:17:32;1.10;99.90
7934;DHT22;4012;48.896;9.192;2022-12-08T04:19:58;1.10;99.90
7934;DHT22;4012;48.896;9.192;2022-12-08T04:22:23;1.10;99.90
7934;DHT22;4012;48.896;9.192;2022-12-08T04:24:49;1.10;99.90
7934;DHT22;4012;48.896;9.192;2022-12-08T04:27:15;1.10;99.90
7934;DHT22;4012;48.896;9.192;2022-12-08T04:29:40;1.10;99.90
7934;DHT22;4012;48.896;9.192;2022-12-08T04:32:06;1.10;99.90
7934;DHT22;4012;48.896;9.192;2022-12-08T04:34:31;1.10;99.90
7934;DHT22;4012;48.896;9.192;2022-12-08T04:36:57;1.10;99.90
7934;DHT22;4012;48.896;9.192;2022-12-08T04:39:23;1.10;99.90
7934;DHT22;4012;48.896;9.192;2022-12-08T04:41:48;1.10;99.90
7934;DHT22;4012;48.896;9.192;2022-12-08T04:44:14;1.10;99.90
7934;DHT22;4012;48.896;9.192;2022-12-08T04:46:39;1.10;99.90
7934;DHT22;4012;48.896;9.192;2022-12-08T04:49:05;1.10;99.90
7934;DHT22;4012;48.896;9.192;2022-12-08T04:51:30;1.20;99.90
7934;DHT22;4012;48.896;9.192;2022-12-08T04:53:56;1.30;99.90
7934;DHT22;4012;48.896;9.192;2022-12-08T04:56:21;1.30;99.90
7934;DHT22;4012;48.896;9.192;2022-12-08T04:58:47;1.30;99.90
7934;DHT22;4012;48.896;9.192;2022-12-08T05:01:13;1.40;99.90
7934;DHT22;4012;48.896;9.192;2022-12-08T05:03:38;1.40;99.90
7934;DHT22;4012;48.896;9.192;2022-12-08T05:06:04;1.30;99.90
7934;DHT22;4012;48.896;9.192;2022-12-08T05:08:31;1.30;99.90
7934;DHT22;4012;48.896;9.192;2022-12-08T05:11:04;1.20;99.90
7934;DHT22;4012;48.896;9.192;2022-12-08T05:13:30;1.20;99.90
7934;DHT22;4012;48.896;9.192;2022-12-08T05:16:11;1.20;99.90
7934;DHT22;4012;48.896;9.192;2022-12-08T05:18:37;1.20;99.90
7934;DHT22;4012;48.896;9.192;2022-12-08T05:21:04;1.20;99.90
7934;DHT22;4012;48.896;9.192;2022-12-08T05:23:30;1.20;99.90
7934;DHT22;4012;48.896;9.192;2022-12-08T05:25:55;1.20;99.90
7934;DHT22;4012;48.896;9.192;2022-12-08T05:28:21;1.20;99.90
7934;DHT22;4012;48.896;9.192;2022-12-08T05:30:47;1.20;99.90
7934;DHT22;4012;48.896;9.192;2022-12-08T05:33:12;1.20;99.90
7934;DHT22;4012;48.896;9.192;2022-12-08T05:35:38;1.20;99.90
7934;DHT22;4012;48.896;9.192;2022-12-08T05:38:05;1.20;99.90
7934;DHT22;4012;48.896;9.192;2022-12-08T05:40:30;1.10;99.90
7934;DHT22;4012;48.896;9.192;2022-12-08T05:42:56;1.10;99.90
7934;DHT22;4012;48.896;9.192;2022-12-08T05:45:21;1.10;99.90
7934;DHT22;4012;48.896;9.192;2022-12-08T05:47:47;1.10;99.90
7934;DHT22;4012;48.896;9.192;2022-12-08T05:50:13;1.00;99.90
7934;DHT22;4012;48.896;9.192;2022-12-08T05:52:38;1.00;99.90
7934;DHT22;4012;48.896;9.192;2022-12-08T05:55:04;1.00;99.90
7934;DHT22;4012;48.896;9.192;2022-12-08T05:57:29;1.00;99.90
7934;DHT22;4012;48.896;9.192;2022-12-08T05:59:55;1.00;99.90
7934;DHT22;4012;48.896;9.192;2022-12-08T06:02:24;1.10;99.90
7934;DHT22;4012;48.896;9.192;2022-12-08T06:04:49;1.00;99.90
7934;DHT22;4012;48.896;9.192;2022-12-08T06:07:16;1.00;99.90
7934;DHT22;4012;48.896;9.192;2022-12-08T06:09:42;1.00;99.90
7934;DHT22;4012;48.896;9.192;2022-12-08T06:12:07;1.00;99.90
7934;DHT22;4012;48.896;9.192;2022-12-08T06:14:37;1.00;99.90
7934;DHT22;4012;48.896;9.192;2022-12-08T06:17:02;1.00;99.90
7934;DHT22;4012;48.896;9.192;2022-12-08T06:19:28;1.00;99.90
7934;DHT22;4012;48.896;9.192;2022-12-08T06:21:54;1.00;99.90
7934;DHT22;4012;48.896;9.192;2022-12-08T06:24:19;1.10;99.90
7934;DHT22;4012;48.896;9.192;2022-12-08T06:26:45;1.10;99.90
7934;DHT22;4012;48.896;9.192;2022-12-08T06:29:11;1.00;99.90
7934;DHT22;4012;48.896;9.192;2022-12-08T06:31:37;1.00;99.90
7934;DHT22;4012;48.896;9.192;2022-12-08T06:34:03;1.10;99.90
7934;DHT22;4012;48.896;9.192;2022-12-08T06:36:29;1.10;99.90
7934;DHT22;4012;48.896;9.192;2022-12-08T06:38:55;1.10;99.90
7934;DHT22;4012;48.896;9.192;2022-12-08T06:41:21;1.10;99.90
7934;DHT22;4012;48.896;9.192;2022-12-08T06:43:46;1.10;99.90
7934;DHT22;4012;48.896;9.192;2022-12-08T06:46:14;1.10;99.90
7934;DHT22;4012;48.896;9.192;2022-12-08T06:48:40;1.10;99.90
7934;DHT22;4012;48.896;9.192;2022-12-08T06:51:17;1.10;99.90
7934;DHT22;4012;48.896;9.192;2022-12-08T06:53:44;1.10;99.90
7934;DHT22;4012;48.896;9.192;2022-12-08T06:56:10;1.10;99.90
7934;DHT22;4012;48.896;9.192;2022-12-08T06:58:35;1.10;99.90
7934;DHT22;4012;48.896;9.192;2022-12-08T07:01:09;1.20;99.90
7934;DHT22;4012;48.896;9.192;2022-12-08T07:03:36;1.20;99.90
7934;DHT22;4012;48.896;9.192;2022-12-08T07:06:03;1.30;99.90
7934;DHT22;4012;48.896;9.192;2022-12-08T07:08:28;1.30;99.90
7934;DHT22;4012;48.896;9.192;2022-12-08T07:10:54;1.30;99.90
7934;DHT22;4012;48.896;9.192;2022-12-08T07:13:20;1.40;99.90
7934;DHT22;4012;48.896;9.192;2022-12-08T07:15:45;1.30;99.90
7934;DHT22;4012;48.896;9.192;2022-12-08T07:18:11;1.40;99.90
7934;DHT22;4012;48.896;9.192;2022-12-08T07:20:37;1.40;99.90
7934;DHT22;4012;48.896;9.192;2022-12-08T07:23:02;1.40;99.90
7934;DHT22;4012;48.896;9.192;2022-12-08T07:25:28;1.30;99.90
7934;DHT22;4012;48.896;9.192;2022-12-08T07:27:54;1.30;99.90
7934;DHT22;4012;48.896;9.192;2022-12-08T07:30:19;1.40;99.90
7934;DHT22;4012;48.896;9.192;2022-12-08T07:32:45;1.40;99.90
7934;DHT22;4012;48.896;9.192;2022-12-08T07:35:11;1.30;99.90
7934;DHT22;4012;48.896;9.192;2022-12-08T07:37:37;1.30;99.90
7934;DHT22;4012;48.896;9.192;2022-12-08T07:40:04;1.20;99.90
7934;DHT22;4012;48.896;9.192;2022-12-08T07:42:30;1.20;99.90
7934;DHT22;4012;48.896;9.192;2022-12-08T07:44:56;1.10;99.90
7934;DHT22;4012;48.896;9.192;2022-12-08T07:47:22;1.10;99.90
7934;DHT22;4012;48.896;9.192;2022-12-08T07:49:47;1.10;99.90
7934;DHT22;4012;48.896;9.192;2022-12-08T07:52:13;1.10;99.90
7934;DHT22;4012;48.896;9.192;2022-12-08T07:54:38;1.10;99.90
7934;DHT22;4012;48.896;9.192;2022-12-08T07:57:04;1.20;99.90
7934;DHT22;4012;48.896;9.192;2022-12-08T07:59:30;1.30;99.90
7934;DHT22;4012;48.896;9.192;2022-12-08T08:01:56;1.30;99.90
7934;DHT22;4012;48.896;9.192;2022-12-08T08:04:21;1.30;99.90
7934;DHT22;4012;48.896;9.192;2022-12-08T08:06:47;1.30;99.90
7934;DHT22;4012;48.896;9.192;2022-12-08T08:09:13;1.30;99.90
7934;DHT22;4012;48.896;9.192;2022-12-08T08:11:38;1.30;99.90
7934;DHT22;4012;48.896;9.192;2022-12-08T08:14:04;1.40;99.90
7934;DHT22;4012;48.896;9.192;2022-12-08T08:16:30;1.50;99.90
7934;DHT22;4012;48.896;9.192;2022-12-08T08:18:55;1.50;99.90
7934;DHT22;4012;48.896;9.192;2022-12-08T08:21:21;1.40;99.90
7934;DHT22;4012;48.896;9.192;2022-12-08T08:23:46;1.40;99.90
7934;DHT22;4012;48.896;9.192;2022-12-08T08:26:12;1.40;99.90
7934;DHT22;4012;48.896;9.192;2022-12-08T08:28:38;1.50;99.90
7934;DHT22;4012;48.896;9.192;2022-12-08T08:31:04;1.50;99.90
7934;DHT22;4012;48.896;9.192;2022-12-08T08:33:30;1.50;99.90
7934;DHT22;4012;48.896;9.192;2022-12-08T08:35:55;1.60;99.90
7934;DHT22;4012;48.896;9.192;2022-12-08T08:38:21;1.60;99.90
7934;DHT22;4012;48.896;9.192;2022-12-08T08:40:47;1.60;99.90
7934;DHT22;4012;48.896;9.192;2022-12-08T08:43:12;1.70;99.90
7934;DHT22;4012;48.896;9.192;2022-12-08T08:45:57;1.60;99.90
7934;DHT22;4012;48.896;9.192;2022-12-08T08:48:25;1.70;99.90
7934;DHT22;4012;48.896;9.192;2022-12-08T08:50:51;1.70;99.90
7934;DHT22;4012;48.896;9.192;2022-12-08T08:53:16;1.80;99.90
7934;DHT22;4012;48.896;9.192;2022-12-08T08:55:42;1.90;99.90
7934;DHT22;4012;48.896;9.192;2022-12-08T08:58:08;2.00;99.90
7934;DHT22;4012;48.896;9.192;2022-12-08T09:00:33;2.00;99.90
7934;DHT22;4012;48.896;9.192;2022-12-08T09:02:59;2.10;99.90
7934;DHT22;4012;48.896;9.192;2022-12-08T09:05:25;2.50;99.90
7934;DHT22;4012;48.896;9.192;2022-12-08T09:07:50;4.30;99.90
7934;DHT22;4012;48.896;9.192;2022-12-08T09:10:16;6.90;99.90
7934;DHT22;4012;48.896;9.192;2022-12-08T09:12:41;8.60;99.90
7934;DHT22;4012;48.896;9.192;2022-12-08T09:15:07;9.60;99.90
7934;DHT22;4012;48.896;9.192;2022-12-08T09:17:33;10.10;99.90
7934;DHT22;4012;48.896;9.192;2022-12-08T09:19:59;11.30;99.90
7934;DHT22;4012;48.896;9.192;2022-12-08T09:22:25;12.20;99.90
7934;DHT22;4012;48.896;9.192;2022-12-08T09:24:51;13.00;99.90
7934;DHT22;4012;48.896;9.192;2022-12-08T09:27:17;12.60;99.90
7934;DHT22;4012;48.896;9.192;2022-12-08T09:29:43;12.70;99.90
7934;DHT22;4012;48.896;9.192;2022-12-08T09:32:08;13.20;99.90
7934;DHT22;4012;48.896;9.192;2022-12-08T09:34:35;11.90;99.90
7934;DHT22;4012;48.896;9.192;2022-12-08T09:37:00;11.90;99.90
7934;DHT22;4012;48.896;9.192;2022-12-08T09:39:26;12.60;99.90
7934;DHT22;4012;48.896;9.192;2022-12-08T09:42:03;12.90;99.90
7934;DHT22;4012;48.896;9.192;2022-12-08T09:47:25;13.20;99.90
7934;DHT22;4012;48.896;9.192;2022-12-08T09:50:17;12.60;99.90
7934;DHT22;4012;48.896;9.192;2022-12-08T09:58:16;12.30;99.90
7934;DHT22;4012;48.896;9.192;2022-12-08T10:00:43;11.50;99.90
7934;DHT22;4012;48.896;9.192;2022-12-08T10:03:11;12.30;99.90
7934;DHT22;4012;48.896;9.192;2022-12-08T10:05:44;12.50;99.90
7934;DHT22;4012;48.896;9.192;2022-12-08T10:08:19;12.80;99.90
7934;DHT22;4012;48.896;9.192;2022-12-08T10:10:56;13.20;99.90
7934;DHT22;4012;48.896;9.192;2022-12-08T10:16:41;13.30;99.90
7934;DHT22;4012;48.896;9.192;2022-12-08T10:19:19;12.70;99.90
7934;DHT22;4012;48.896;9.192;2022-12-08T10:21:45;12.90;99.90
7934;DHT22;4012;48.896;9.192;2022-12-08T10:26:44;11.00;99.90
7934;DHT22;4012;48.896;9.192;2022-12-08T10:29:13;10.10;99.90
7934;DHT22;4012;48.896;9.192;2022-12-08T10:31:39;9.40;99.90
7934;DHT22;4012;48.896;9.192;2022-12-08T10:34:17;8.90;99.90
7934;DHT22;4012;48.896;9.192;2022-12-08T10:36:54;7.80;99.90
7934;DHT22;4012;48.896;9.192;2022-12-08T10:39:36;7.50;99.90
7934;DHT22;4012;48.896;9.192;2022-12-08T10:42:08;6.60;99.90
7934;DHT22;4012;48.896;9.192;2022-12-08T10:45:15;6.30;99.90
7934;DHT22;4012;48.896;9.192;2022-12-08T10:47:36;6.00;99.90
7934;DHT22;4012;48.896;9.192;2022-12-08T10:50:27;5.70;99.90
7934;DHT22;4012;48.896;9.192;2022-12-08T10:53:01;5.60;99.90
7934;DHT22;4012;48.896;9.192;2022-12-08T10:55:45;5.20;99.90
7934;DHT22;4012;48.896;9.192;2022-12-08T11:01:05;5.30;99.90
7934;DHT22;4012;48.896;9.192;2022-12-08T11:03:51;5.20;99.90
7934;DHT22;4012;48.896;9.192;2022-12-08T11:08:58;5.50;99.90
7934;DHT22;4012;48.896;9.192;2022-12-08T11:11:44;5.60;99.90
7934;DHT22;4012;48.896;9.192;2022-12-08T11:14:28;5.80;99.90
7934;DHT22;4012;48.896;9.192;2022-12-08T11:19:58;5.60;99.90
7934;DHT22;4012;48.896;9.192;2022-12-08T11:22:39;5.40;99.90
7934;DHT22;4012;48.896;9.192;2022-12-08T11:25:17;5.40;99.90
7934;DHT22;4012;48.896;9.192;2022-12-08T11:27:46;5.50;99.90
7934;DHT22;4012;48.896;9.192;2022-12-08T11:32:47;5.60;99.90
7934;DHT22;4012;48.896;9.192;2022-12-08T11:35:35;5.50;99.90
7934;DHT22;4012;48.896;9.192;2022-12-08T11:38:16;5.70;99.90
7934;DHT22;4012;48.896;9.192;2022-12-08T11:40:45;5.60;99.90
7934;DHT22;4012;48.896;9.192;2022-12-08T11:46:04;5.70;99.90
7934;DHT22;4012;48.896;9.192;2022-12-08T11:48:53;5.80;99.90
7934;DHT22;4012;48.896;9.192;2022-12-08T11:51:49;5.80;99.90
7934;DHT22;4012;48.896;9.192;2022-12-08T11:54:29;5.80;99.90
7934;DHT22;4012;48.896;9.192;2022-12-08T11:56:58;5.80;99.90
7934;DHT22;4012;48.896;9.192;2022-12-08T11:59:28;5.80;99.90
7934;DHT22;4012;48.896;9.192;2022-12-08T12:02:00;5.90;99.90
7934;DHT22;4012;48.896;9.192;2022-12-08T12:07:36;6.20;99.90
7934;DHT22;4012;48.896;9.192;2022-12-08T12:23:41;5.80;99.90
7934;DHT22;4012;48.896;9.192;2022-12-08T12:26:20;5.70;99.90
7934;DHT22;4012;48.896;9.192;2022-12-08T12:29:03;5.70;99.90
7934;DHT22;4012;48.896;9.192;2022-12-08T12:31:30;5.70;99.90
7934;DHT22;4012;48.896;9.192;2022-12-08T12:34:05;5.70;99.90
7934;DHT22;4012;48.896;9.192;2022-12-08T12:36:50;5.80;99.90
7934;DHT22;4012;48.896;9.192;2022-12-08T12:39:19;5.70;99.90
7934;DHT22;4012;48.896;9.192;2022-12-08T12:41:59;5.70;99.90
7934;DHT22;4012;48.896;9.192;2022-12-08T12:46:55;5.60;99.90
7934;DHT22;4012;48.896;9.192;2022-12-08T12:57:23;5.50;99.90
7934;DHT22;4012;48.896;9.192;2022-12-08T13:08:20;5.70;99.90
7934;DHT22;4012;48.896;9.192;2022-12-08T13:13:29;5.50;99.90
7934;DHT22;4012;48.896;9.192;2022-12-08T13:15:55;5.50;99.90
7934;DHT22;4012;48.896;9.192;2022-12-08T13:23:48;5.60;99.90
7934;DHT22;4012;48.896;9.192;2022-12-08T13:31:39;5.60;99.90
7934;DHT22;4012;48.896;9.192;2022-12-08T13:44:48;5.90;99.90
7934;DHT22;4012;48.896;9.192;2022-12-08T13:47:18;6.40;99.90
7934;DHT22;4012;48.896;9.192;2022-12-08T13:49:59;6.30;99.90
7934;DHT22;4012;48.896;9.192;2022-12-08T13:52:50;5.80;99.90
7934;DHT22;4012;48.896;9.192;2022-12-08T13:57:59;5.60;99.90
7934;DHT22;4012;48.896;9.192;2022-12-08T14:00:25;5.70;99.90
7934;DHT22;4012;48.896;9.192;2022-12-08T14:03:03;5.60;99.90
7934;DHT22;4012;48.896;9.192;2022-12-08T14:05:39;5.70;99.90
7934;DHT22;4012;48.896;9.192;2022-12-08T14:08:16;5.80;99.90
7934;DHT22;4012;48.896;9.192;2022-12-08T14:10:43;5.70;99.90
7934;DHT22;4012;48.896;9.192;2022-12-08T14:13:11;5.70;99.90
7934;DHT22;4012;48.896;9.192;2022-12-08T14:15:39;5.60;99.90
7934;DHT22;4012;48.896;9.192;2022-12-08T14:18:24;5.60;99.90
7934;DHT22;4012;48.896;9.192;2022-12-08T14:21:11;5.50;99.90
7934;DHT22;4012;48.896;9.192;2022-12-08T14:23:37;5.50;99.90
7934;DHT22;4012;48.896;9.192;2022-12-08T14:26:09;5.40;99.90
7934;DHT22;4012;48.896;9.192;2022-12-08T14:28:36;5.50;99.90
7934;DHT22;4012;48.896;9.192;2022-12-08T14:31:03;5.20;99.90
7934;DHT22;4012;48.896;9.192;2022-12-08T14:33:30;5.20;99.90
7934;DHT22;4012;48.896;9.192;2022-12-08T14:35:56;5.40;99.90
7934;DHT22;4012;48.896;9.192;2022-12-08T14:38:23;5.40;99.90
7934;DHT22;4012;48.896;9.192;2022-12-08T14:41:03;5.40;99.90
7934;DHT22;4012;48.896;9.192;2022-12-08T14:43:30;5.30;99.90
7934;DHT22;4012;48.896;9.192;2022-12-08T14:46:01;5.30;99.90
7934;DHT22;4012;48.896;9.192;2022-12-08T14:53:39;5.30;99.90
7934;DHT22;4012;48.896;9.192;2022-12-08T14:59:00;5.20;99.90
7934;DHT22;4012;48.896;9.192;2022-12-08T15:01:27;5.10;99.90
7934;DHT22;4012;48.896;9.192;2022-12-08T15:04:44;5.10;99.90
7934;DHT22;4012;48.896;9.192;2022-12-08T15:07:11;5.00;99.90
7934;DHT22;4012;48.896;9.192;2022-12-08T15:09:43;5.00;99.90
7934;DHT22;4012;48.896;9.192;2022-12-08T15:20:40;5.00;99.90
7934;DHT22;4012;48.896;9.192;2022-12-08T15:23:39;5.00;99.90
7934;DHT22;4012;48.896;9.192;2022-12-08T15:26:07;5.00;99.90
7934;DHT22;4012;48.896;9.192;2022-12-08T15:28:33;4.90;99.90
7934;DHT22;4012;48.896;9.192;2022-12-08T15:30:59;4.90;99.90
7934;DHT22;4012;48.896;9.192;2022-12-08T15:33:25;4.80;99.90
7934;DHT22;4012;48.896;9.192;2022-12-08T15:35:51;4.90;99.90
7934;DHT22;4012;48.896;9.192;2022-12-08T15:38:25;4.90;99.90
7934;DHT22;4012;48.896;9.192;2022-12-08T15:40:52;5.00;99.90
7934;DHT22;4012;48.896;9.192;2022-12-08T15:43:18;5.00;99.90
7934;DHT22;4012;48.896;9.192;2022-12-08T15:45:44;5.00;99.90
7934;DHT22;4012;48.896;9.192;2022-12-08T15:48:21;5.10;99.90
7934;DHT22;4012;48.896;9.192;2022-12-08T15:50:49;5.00;99.90
7934;DHT22;4012;48.896;9.192;2022-12-08T15:53:15;4.90;99.90
7934;DHT22;4012;48.896;9.192;2022-12-08T15:55:42;4.80;99.90
7934;DHT22;4012;48.896;9.192;2022-12-08T15:58:18;4.80;99.90
7934;DHT22;4012;48.896;9.192;2022-12-08T16:00:44;4.80;99.90
7934;DHT22;4012;48.896;9.192;2022-12-08T16:03:19;4.80;99.90
7934;DHT22;4012;48.896;9.192;2022-12-08T16:05:45;4.90;99.90
7934;DHT22;4012;48.896;9.192;2022-12-08T16:08:14;5.50;99.90
7934;DHT22;4012;48.896;9.192;2022-12-08T16:10:43;5.40;99.90
7934;DHT22;4012;48.896;9.192;2022-12-08T16:13:19;5.50;99.90
7934;DHT22;4012;48.896;9.192;2022-12-08T16:16:10;5.30;99.90
7934;DHT22;4012;48.896;9.192;2022-12-08T16:18:38;5.20;99.90
7934;DHT22;4012;48.896;9.192;2022-12-08T16:21:06;5.20;99.90
7934;DHT22;4012;48.896;9.192;2022-12-08T16:23:32;5.10;99.90
7934;DHT22;4012;48.896;9.192;2022-12-08T16:25:58;5.00;99.90
7934;DHT22;4012;48.896;9.192;2022-12-08T16:28:25;4.90;99.90
7934;DHT22;4012;48.896;9.192;2022-12-08T16:30:50;4.90;99.90
7934;DHT22;4012;48.896;9.192;2022-12-08T16:33:16;4.90;99.90
7934;DHT22;4012;48.896;9.192;2022-12-08T16:35:42;4.90;99.90
7934;DHT22;4012;48.896;9.192;2022-12-08T16:38:12;5.20;99.90
7934;DHT22;4012;48.896;9.192;2022-12-08T16:40:38;5.20;99.90
7934;DHT22;4012;48.896;9.192;2022-12-08T16:43:24;5.20;99.90
7934;DHT22;4012;48.896;9.192;2022-12-08T16:45:49;5.10;99.90
7934;DHT22;4012;48.896;9.192;2022-12-08T16:48:15;5.00;99.90
7934;DHT22;4012;48.896;9.192;2022-12-08T16:50:44;4.90;99.90
7934;DHT22;4012;48.896;9.192;2022-12-08T16:53:11;4.90;99.90
7934;DHT22;4012;48.896;9.192;2022-12-08T16:55:37;4.80;99.90
7934;DHT22;4012;48.896;9.192;2022-12-08T16:58:03;4.90;99.90
7934;DHT22;4012;48.896;9.192;2022-12-08T17:00:30;4.80;99.90
7934;DHT22;4012;48.896;9.192;2022-12-08T17:02:56;4.80;99.90
7934;DHT22;4012;48.896;9.192;2022-12-08T17:05:23;4.70;99.90
7934;DHT22;4012;48.896;9.192;2022-12-08T17:07:51;4.60;99.90
7934;DHT22;4012;48.896;9.192;2022-12-08T17:10:22;4.50;99.90
7934;DHT22;4012;48.896;9.192;2022-12-08T17:12:49;4.40;99.90
7934;DHT22;4012;48.896;9.192;2022-12-08T17:15:18;4.20;99.90
7934;DHT22;4012;48.896;9.192;2022-12-08T17:17:44;4.20;99.90
7934;DHT22;4012;48.896;9.192;2022-12-08T17:20:16;4.20;99.90
7934;DHT22;4012;48.896;9.192;2022-12-08T17:22:43;4.10;99.90
7934;DHT22;4012;48.896;9.192;2022-12-08T17:25:09;4.10;99.90
7934;DHT22;4012;48.896;9.192;2022-12-08T17:27:35;4.10;99.90
7934;DHT22;4012;48.896;9.192;2022-12-08T17:30:00;4.10;99.90
7934;DHT22;4012;48.896;9.192;2022-12-08T17:32:26;4.10;99.90
7934;DHT22;4012;48.896;9.192;2022-12-08T17:34:52;4.10;99.90
7934;DHT22;4012;48.896;9.192;2022-12-08T17:37:18;4.10;99.90
7934;DHT22;4012;48.896;9.192;2022-12-08T17:39:44;4.10;99.90
7934;DHT22;4012;48.896;9.192;2022-12-08T17:42:09;4.00;99.90
7934;DHT22;4012;48.896;9.192;2022-12-08T17:44:35;3.90;99.90
7934;DHT22;4012;48.896;9.192;2022-12-08T17:47:02;3.90;99.90
7934;DHT22;4012;48.896;9.192;2022-12-08T17:49:28;3.80;99.90
7934;DHT22;4012;48.896;9.192;2022-12-08T17:51:56;3.90;99.90
7934;DHT22;4012;48.896;9.192;2022-12-08T17:54:23;3.80;99.90
7934;DHT22;4012;48.896;9.192;2022-12-08T17:56:49;3.80;99.90
7934;DHT22;4012;48.896;9.192;2022-12-08T17:59:15;3.80;99.90
7934;DHT22;4012;48.896;9.192;2022-12-08T18:01:41;3.90;99.90
7934;DHT22;4012;48.896;9.192;2022-12-08T18:04:08;4.00;99.90
7934;DHT22;4012;48.896;9.192;2022-12-08T18:06:35;3.90;99.90
7934;DHT22;4012;48.896;9.192;2022-12-08T18:09:01;3.90;99.90
7934;DHT22;4012;48.896;9.192;2022-12-08T18:11:28;3.90;99.90
7934;DHT22;4012;48.896;9.192;2022-12-08T18:13:54;4.00;99.90
7934;DHT22;4012;48.896;9.192;2022-12-08T18:16:22;3.90;99.90
7934;DHT22;4012;48.896;9.192;2022-12-08T18:18:48;4.00;99.90
7934;DHT22;4012;48.896;9.192;2022-12-08T18:21:14;4.00;99.90
7934;DHT22;4012;48.896;9.192;2022-12-08T18:23:41;4.10;99.90
7934;DHT22;4012;48.896;9.192;2022-12-08T18:26:08;4.00;99.90
7934;DHT22;4012;48.896;9.192;2022-12-08T18:28:35;4.10;99.90
7934;DHT22;4012;48.896;9.192;2022-12-08T18:31:01;4.00;99.90
7934;DHT22;4012;48.896;9.192;2022-12-08T18:33:27;4.00;99.90
7934;DHT22;4012;48.896;9.192;2022-12-08T18:35:52;4.00;99.90
7934;DHT22;4012;48.896;9.192;2022-12-08T18:38:18;4.00;99.90
7934;DHT22;4012;48.896;9.192;2022-12-08T18:40:44;4.00;99.90
7934;DHT22;4012;48.896;9.192;2022-12-08T18:43:10;4.00;99.90
7934;DHT22;4012;48.896;9.192;2022-12-08T18:45:36;3.90;99.90